sensor_id;sensor_type;location;lat;lon;timestamp;P1;durP1;ratioP1;P2;durP2;ratioP2
33094;SDS011;19459;53.044;8.910;2023-03-01T00:01:05;35.83;;;16.55;;
33094;SDS011;19459;53.044;8.910;2023-03-01T00:03:39;33.95;;;16.83;;
33094;SDS011;19459;53.044;8.910;2023-03-01T00:06:06;34.97;;;16.08;;
33094;SDS011;19459;53.044;8.910;2023-03-01T00:08:31;35.75;;;17.48;;
33094;SDS011;19459;53.044;8.910;2023-03-01T00:13:34;36.28;;;17.92;;
33094;SDS011;19459;53.044;8.910;2023-03-01T00:16:05;36.00;;;17.13;;
33094;SDS011;19459;53.044;8.910;2023-03-01T00:18:33;37.35;;;17.40;;
33094;SDS011;19459;53.044;8.910;2023-03-01T00:20:59;38.08;;;17.90;;
33094;SDS011;19459;53.044;8.910;2023-03-01T00:23:26;35.20;;;17.02;;
33094;SDS011;19459;53.044;8.910;2023-03-01T00:25:52;34.25;;;17.63;;
33094;SDS011;19459;53.044;8.910;2023-03-01T00:28:19;33.13;;;17.27;;
33094;SDS011;19459;53.044;8.910;2023-03-01T00:30:45;35.92;;;17.17;;
33094;SDS011;19459;53.044;8.910;2023-03-01T00:33:12;38.40;;;15.45;;
33094;SDS011;19459;53.044;8.910;2023-03-01T00:35:38;39.97;;;18.85;;
33094;SDS011;19459;53.044;8.910;2023-03-01T00:38:04;37.83;;;18.10;;
33094;SDS011;19459;53.044;8.910;2023-03-01T00:40:31;38.90;;;18.33;;
33094;SDS011;19459;53.044;8.910;2023-03-01T00:42:59;38.15;;;18.85;;
33094;SDS011;19459;53.044;8.910;2023-03-01T00:45:25;33.13;;;17.05;;
33094;SDS011;19459;53.044;8.910;2023-03-01T00:47:52;38.97;;;18.25;;
33094;SDS011;19459;53.044;8.910;2023-03-01T00:50:18;39.95;;;18.58;;
33094;SDS011;19459;53.044;8.910;2023-03-01T00:52:45;36.58;;;17.50;;
33094;SDS011;19459;53.044;8.910;2023-03-01T00:55:11;35.88;;;18.30;;
33094;SDS011;19459;53.044;8.910;2023-03-01T00:57:37;43.00;;;18.77;;
33094;SDS011;19459;53.044;8.910;2023-03-01T01:00:04;42.13;;;18.58;;
33094;SDS011;19459;53.044;8.910;2023-03-01T01:02:34;38.10;;;18.63;;
33094;SDS011;19459;53.044;8.910;2023-03-01T01:05:01;33.80;;;17.85;;
33094;SDS011;19459;53.044;8.910;2023-03-01T01:07:27;34.20;;;16.42;;
33094;SDS011;19459;53.044;8.910;2023-03-01T01:09:52;30.00;;;16.05;;
33094;SDS011;19459;53.044;8.910;2023-03-01T01:12:18;33.35;;;16.08;;
33094;SDS011;19459;53.044;8.910;2023-03-01T01:14:44;48.42;;;19.13;;
33094;SDS011;19459;53.044;8.910;2023-03-01T01:17:20;33.45;;;19.02;;
33094;SDS011;19459;53.044;8.910;2023-03-01T01:19:46;33.45;;;16.58;;
33094;SDS011;19459;53.044;8.910;2023-03-01T01:22:11;33.90;;;17.30;;
33094;SDS011;19459;53.044;8.910;2023-03-01T01:24:37;31.17;;;16.00;;
33094;SDS011;19459;53.044;8.910;2023-03-01T01:27:03;34.88;;;16.98;;
33094;SDS011;19459;53.044;8.910;2023-03-01T01:29:28;31.48;;;16.45;;
33094;SDS011;19459;53.044;8.910;2023-03-01T01:31:54;32.35;;;15.95;;
33094;SDS011;19459;53.044;8.910;2023-03-01T01:34:21;39.13;;;16.67;;
33094;SDS011;19459;53.044;8.910;2023-03-01T01:36:48;30.75;;;15.93;;
33094;SDS011;19459;53.044;8.910;2023-03-01T01:39:15;32.30;;;16.58;;
33094;SDS011;19459;53.044;8.910;2023-03-01T01:41:42;30.33;;;15.98;;
33094;SDS011;19459;53.044;8.910;2023-03-01T01:46:57;28.85;;;14.82;;
33094;SDS011;19459;53.044;8.910;2023-03-01T01:52:14;30.98;;;16.38;;
33094;SDS011;19459;53.044;8.910;2023-03-01T01:57:47;31.85;;;14.88;;
33094;SDS011;19459;53.044;8.910;2023-03-01T02:02:55;29.10;;;15.25;;
33094;SDS011;19459;53.044;8.910;2023-03-01T02:05:32;26.55;;;14.65;;
33094;SDS011;19459;53.044;8.910;2023-03-01T02:08:11;25.23;;;13.93;;
33094;SDS011;19459;53.044;8.910;2023-03-01T02:10:39;32.35;;;15.23;;
33094;SDS011;19459;53.044;8.910;2023-03-01T02:13:06;30.05;;;14.90;;
33094;SDS011;19459;53.044;8.910;2023-03-01T02:15:36;23.52;;;12.73;;
33094;SDS011;19459;53.044;8.910;2023-03-01T02:18:04;27.17;;;15.48;;
33094;SDS011;19459;53.044;8.910;2023-03-01T02:23:15;28.10;;;14.07;;
33094;SDS011;19459;53.044;8.910;2023-03-01T02:25:52;24.95;;;13.82;;
33094;SDS011;19459;53.044;8.910;2023-03-01T02:28:29;31.33;;;15.07;;
33094;SDS011;19459;53.044;8.910;2023-03-01T02:30:57;27.13;;;14.52;;
33094;SDS011;19459;53.044;8.910;2023-03-01T02:33:42;30.00;;;14.13;;
33094;SDS011;19459;53.044;8.910;2023-03-01T02:36:10;27.10;;;13.32;;
33094;SDS011;19459;53.044;8.910;2023-03-01T02:38:43;30.42;;;14.10;;
33094;SDS011;19459;53.044;8.910;2023-03-01T02:41:14;29.85;;;13.13;;
33094;SDS011;19459;53.044;8.910;2023-03-01T02:43:42;24.17;;;13.45;;
33094;SDS011;19459;53.044;8.910;2023-03-01T02:46:19;24.48;;;13.88;;
33094;SDS011;19459;53.044;8.910;2023-03-01T02:48:52;24.50;;;14.77;;
33094;SDS011;19459;53.044;8.910;2023-03-01T02:56:56;23.67;;;12.65;;
33094;SDS011;19459;53.044;8.910;2023-03-01T02:59:28;23.65;;;12.48;;
33094;SDS011;19459;53.044;8.910;2023-03-01T03:01:57;17.05;;;10.43;;
33094;SDS011;19459;53.044;8.910;2023-03-01T03:04:22;23.02;;;12.75;;
33094;SDS011;19459;53.044;8.910;2023-03-01T03:06:49;25.05;;;12.52;;
33094;SDS011;19459;53.044;8.910;2023-03-01T03:09:16;23.92;;;13.15;;
33094;SDS011;19459;53.044;8.910;2023-03-01T03:11:42;25.63;;;13.80;;
33094;SDS011;19459;53.044;8.910;2023-03-01T03:14:10;22.42;;;12.07;;
33094;SDS011;19459;53.044;8.910;2023-03-01T03:16:42;30.92;;;13.27;;
33094;SDS011;19459;53.044;8.910;2023-03-01T03:19:12;20.73;;;13.05;;
33094;SDS011;19459;53.044;8.910;2023-03-01T03:21:38;22.27;;;13.07;;
33094;SDS011;19459;53.044;8.910;2023-03-01T03:24:04;23.65;;;13.30;;
33094;SDS011;19459;53.044;8.910;2023-03-01T03:26:30;26.20;;;14.07;;
33094;SDS011;19459;53.044;8.910;2023-03-01T03:28:56;19.55;;;11.80;;
33094;SDS011;19459;53.044;8.910;2023-03-01T03:31:22;19.80;;;12.00;;
33094;SDS011;19459;53.044;8.910;2023-03-01T03:33:48;24.83;;;12.00;;
33094;SDS011;19459;53.044;8.910;2023-03-01T03:36:15;19.75;;;12.00;;
33094;SDS011;19459;53.044;8.910;2023-03-01T03:38:44;26.92;;;11.93;;
33094;SDS011;19459;53.044;8.910;2023-03-01T03:41:14;21.23;;;12.38;;
33094;SDS011;19459;53.044;8.910;2023-03-01T03:43:41;21.30;;;12.55;;
33094;SDS011;19459;53.044;8.910;2023-03-01T03:46:08;24.80;;;12.30;;
33094;SDS011;19459;53.044;8.910;2023-03-01T03:48:39;26.67;;;12.77;;
33094;SDS011;19459;53.044;8.910;2023-03-01T03:51:12;22.58;;;11.40;;
33094;SDS011;19459;53.044;8.910;2023-03-01T03:53:40;20.00;;;11.95;;
33094;SDS011;19459;53.044;8.910;2023-03-01T03:56:07;22.48;;;11.43;;
33094;SDS011;19459;53.044;8.910;2023-03-01T03:58:33;21.40;;;11.85;;
33094;SDS011;19459;53.044;8.910;2023-03-01T04:00:59;22.05;;;12.48;;
33094;SDS011;19459;53.044;8.910;2023-03-01T04:03:26;24.80;;;11.52;;
33094;SDS011;19459;53.044;8.910;2023-03-01T04:05:53;24.80;;;12.48;;
33094;SDS011;19459;53.044;8.910;2023-03-01T04:08:19;24.60;;;12.48;;
33094;SDS011;19459;53.044;8.910;2023-03-01T04:10:50;20.67;;;11.75;;
33094;SDS011;19459;53.044;8.910;2023-03-01T04:13:20;20.40;;;12.35;;
33094;SDS011;19459;53.044;8.910;2023-03-01T04:15:51;22.60;;;12.65;;
33094;SDS011;19459;53.044;8.910;2023-03-01T04:18:19;23.35;;;11.77;;
33094;SDS011;19459;53.044;8.910;2023-03-01T04:20:47;24.27;;;12.85;;
33094;SDS011;19459;53.044;8.910;2023-03-01T04:23:14;22.27;;;12.95;;
33094;SDS011;19459;53.044;8.910;2023-03-01T04:25:54;24.33;;;13.00;;
33094;SDS011;19459;53.044;8.910;2023-03-01T04:28:22;24.17;;;13.30;;
33094;SDS011;19459;53.044;8.910;2023-03-01T04:30:54;24.48;;;13.10;;
33094;SDS011;19459;53.044;8.910;2023-03-01T04:33:22;23.40;;;12.13;;
33094;SDS011;19459;53.044;8.910;2023-03-01T04:35:50;20.98;;;12.18;;
33094;SDS011;19459;53.044;8.910;2023-03-01T04:38:17;29.67;;;13.20;;
33094;SDS011;19459;53.044;8.910;2023-03-01T04:40:44;25.40;;;12.88;;
33094;SDS011;19459;53.044;8.910;2023-03-01T04:43:10;24.80;;;12.75;;
33094;SDS011;19459;53.044;8.910;2023-03-01T04:45:39;23.02;;;12.95;;
33094;SDS011;19459;53.044;8.910;2023-03-01T04:48:05;26.85;;;13.63;;
33094;SDS011;19459;53.044;8.910;2023-03-01T04:50:31;24.77;;;13.45;;
33094;SDS011;19459;53.044;8.910;2023-03-01T04:52:57;20.95;;;13.00;;
33094;SDS011;19459;53.044;8.910;2023-03-01T04:55:23;23.52;;;12.80;;
33094;SDS011;19459;53.044;8.910;2023-03-01T04:57:51;31.63;;;12.88;;
33094;SDS011;19459;53.044;8.910;2023-03-01T05:00:18;25.15;;;13.20;;
33094;SDS011;19459;53.044;8.910;2023-03-01T05:02:52;22.45;;;13.00;;
33094;SDS011;19459;53.044;8.910;2023-03-01T05:05:21;27.80;;;12.65;;
33094;SDS011;19459;53.044;8.910;2023-03-01T05:08:03;23.55;;;11.77;;
33094;SDS011;19459;53.044;8.910;2023-03-01T05:10:32;23.30;;;12.18;;
33094;SDS011;19459;53.044;8.910;2023-03-01T05:13:00;24.08;;;13.35;;
33094;SDS011;19459;53.044;8.910;2023-03-01T05:15:28;25.23;;;12.25;;
33094;SDS011;19459;53.044;8.910;2023-03-01T05:17:56;22.23;;;12.63;;
33094;SDS011;19459;53.044;8.910;2023-03-01T05:20:25;26.05;;;12.88;;
33094;SDS011;19459;53.044;8.910;2023-03-01T05:22:55;27.83;;;12.35;;
33094;SDS011;19459;53.044;8.910;2023-03-01T05:25:23;21.45;;;13.25;;
33094;SDS011;19459;53.044;8.910;2023-03-01T05:27:49;20.85;;;11.35;;
33094;SDS011;19459;53.044;8.910;2023-03-01T05:30:16;33.67;;;12.13;;
33094;SDS011;19459;53.044;8.910;2023-03-01T05:32:43;20.27;;;12.35;;
33094;SDS011;19459;53.044;8.910;2023-03-01T05:35:12;22.88;;;14.23;;
33094;SDS011;19459;53.044;8.910;2023-03-01T05:37:46;24.55;;;12.70;;
33094;SDS011;19459;53.044;8.910;2023-03-01T05:40:14;29.40;;;14.15;;
33094;SDS011;19459;53.044;8.910;2023-03-01T05:42:46;23.65;;;12.63;;
33094;SDS011;19459;53.044;8.910;2023-03-01T05:45:14;25.55;;;13.70;;
33094;SDS011;19459;53.044;8.910;2023-03-01T05:47:42;25.73;;;13.95;;
33094;SDS011;19459;53.044;8.910;2023-03-01T05:50:14;22.10;;;12.80;;
33094;SDS011;19459;53.044;8.910;2023-03-01T05:52:49;28.10;;;12.98;;
33094;SDS011;19459;53.044;8.910;2023-03-01T05:55:42;27.23;;;13.45;;
33094;SDS011;19459;53.044;8.910;2023-03-01T05:58:13;22.13;;;12.45;;
33094;SDS011;19459;53.044;8.910;2023-03-01T06:00:41;23.00;;;13.75;;
33094;SDS011;19459;53.044;8.910;2023-03-01T06:03:10;26.35;;;13.98;;
33094;SDS011;19459;53.044;8.910;2023-03-01T06:05:38;27.25;;;13.88;;
33094;SDS011;19459;53.044;8.910;2023-03-01T06:08:05;26.02;;;14.73;;
33094;SDS011;19459;53.044;8.910;2023-03-01T06:10:31;25.90;;;15.35;;
33094;SDS011;19459;53.044;8.910;2023-03-01T06:12:57;20.90;;;13.68;;
33094;SDS011;19459;53.044;8.910;2023-03-01T06:15:23;26.73;;;12.82;;
33094;SDS011;19459;53.044;8.910;2023-03-01T06:17:50;23.50;;;14.20;;
33094;SDS011;19459;53.044;8.910;2023-03-01T06:20:21;22.10;;;13.73;;
33094;SDS011;19459;53.044;8.910;2023-03-01T06:22:48;28.70;;;14.32;;
33094;SDS011;19459;53.044;8.910;2023-03-01T06:25:17;26.38;;;13.48;;
33094;SDS011;19459;53.044;8.910;2023-03-01T06:27:46;25.58;;;14.10;;
33094;SDS011;19459;53.044;8.910;2023-03-01T06:30:13;35.40;;;15.18;;
33094;SDS011;19459;53.044;8.910;2023-03-01T06:32:41;23.83;;;14.00;;
33094;SDS011;19459;53.044;8.910;2023-03-01T06:35:08;31.25;;;14.57;;
33094;SDS011;19459;53.044;8.910;2023-03-01T06:37:36;22.65;;;13.60;;
33094;SDS011;19459;53.044;8.910;2023-03-01T06:40:05;28.60;;;14.15;;
33094;SDS011;19459;53.044;8.910;2023-03-01T06:42:33;35.60;;;14.40;;
33094;SDS011;19459;53.044;8.910;2023-03-01T06:45:07;28.08;;;14.05;;
33094;SDS011;19459;53.044;8.910;2023-03-01T06:47:34;24.40;;;14.45;;
33094;SDS011;19459;53.044;8.910;2023-03-01T06:50:00;26.73;;;14.38;;
33094;SDS011;19459;53.044;8.910;2023-03-01T06:52:27;40.38;;;16.35;;
33094;SDS011;19459;53.044;8.910;2023-03-01T06:54:52;40.58;;;18.35;;
33094;SDS011;19459;53.044;8.910;2023-03-01T06:57:18;33.05;;;16.58;;
33094;SDS011;19459;53.044;8.910;2023-03-01T06:59:44;30.35;;;17.45;;
33094;SDS011;19459;53.044;8.910;2023-03-01T07:02:12;31.45;;;17.15;;
33094;SDS011;19459;53.044;8.910;2023-03-01T07:04:39;34.22;;;19.15;;
33094;SDS011;19459;53.044;8.910;2023-03-01T07:07:06;33.78;;;16.55;;
33094;SDS011;19459;53.044;8.910;2023-03-01T07:09:32;34.58;;;18.55;;
33094;SDS011;19459;53.044;8.910;2023-03-01T07:11:58;28.15;;;18.17;;
33094;SDS011;19459;53.044;8.910;2023-03-01T07:14:23;33.50;;;17.13;;
33094;SDS011;19459;53.044;8.910;2023-03-01T07:16:50;37.42;;;19.83;;
33094;SDS011;19459;53.044;8.910;2023-03-01T07:19:17;36.60;;;18.20;;
33094;SDS011;19459;53.044;8.910;2023-03-01T07:21:43;30.70;;;18.20;;
33094;SDS011;19459;53.044;8.910;2023-03-01T07:24:10;35.13;;;19.42;;
33094;SDS011;19459;53.044;8.910;2023-03-01T07:26:36;28.10;;;17.50;;
33094;SDS011;19459;53.044;8.910;2023-03-01T07:29:03;29.95;;;16.60;;
33094;SDS011;19459;53.044;8.910;2023-03-01T07:31:31;28.48;;;17.63;;
33094;SDS011;19459;53.044;8.910;2023-03-01T07:33:57;28.75;;;17.95;;
33094;SDS011;19459;53.044;8.910;2023-03-01T07:36:24;29.52;;;15.15;;
33094;SDS011;19459;53.044;8.910;2023-03-01T07:38:50;29.95;;;16.27;;
33094;SDS011;19459;53.044;8.910;2023-03-01T07:41:16;26.77;;;16.52;;
33094;SDS011;19459;53.044;8.910;2023-03-01T07:43:42;26.23;;;15.48;;
33094;SDS011;19459;53.044;8.910;2023-03-01T07:46:08;24.30;;;15.23;;
33094;SDS011;19459;53.044;8.910;2023-03-01T07:48:34;24.60;;;15.07;;
33094;SDS011;19459;53.044;8.910;2023-03-01T07:51:00;20.10;;;13.15;;
33094;SDS011;19459;53.044;8.910;2023-03-01T07:53:27;26.38;;;14.35;;
33094;SDS011;19459;53.044;8.910;2023-03-01T07:56:12;24.52;;;13.77;;
33094;SDS011;19459;53.044;8.910;2023-03-01T07:58:42;24.17;;;13.73;;
33094;SDS011;19459;53.044;8.910;2023-03-01T08:01:10;17.30;;;12.60;;
33094;SDS011;19459;53.044;8.910;2023-03-01T08:03:39;20.20;;;12.15;;
33094;SDS011;19459;53.044;8.910;2023-03-01T08:06:06;24.67;;;13.88;;
33094;SDS011;19459;53.044;8.910;2023-03-01T08:08:34;24.58;;;14.30;;
33094;SDS011;19459;53.044;8.910;2023-03-01T08:11:01;24.02;;;13.77;;
33094;SDS011;19459;53.044;8.910;2023-03-01T08:13:29;27.73;;;13.25;;
33094;SDS011;19459;53.044;8.910;2023-03-01T08:16:00;20.42;;;12.93;;
33094;SDS011;19459;53.044;8.910;2023-03-01T08:18:31;25.45;;;13.45;;
33094;SDS011;19459;53.044;8.910;2023-03-01T08:21:04;22.35;;;14.35;;
33094;SDS011;19459;53.044;8.910;2023-03-01T08:23:32;24.13;;;15.73;;
33094;SDS011;19459;53.044;8.910;2023-03-01T08:28:43;23.40;;;13.27;;
33094;SDS011;19459;53.044;8.910;2023-03-01T08:31:20;20.80;;;13.30;;
33094;SDS011;19459;53.044;8.910;2023-03-01T08:33:47;19.00;;;12.05;;
33094;SDS011;19459;53.044;8.910;2023-03-01T08:36:20;19.77;;;11.88;;
33094;SDS011;19459;53.044;8.910;2023-03-01T08:38:47;21.58;;;13.85;;
33094;SDS011;19459;53.044;8.910;2023-03-01T08:41:13;24.17;;;14.65;;
33094;SDS011;19459;53.044;8.910;2023-03-01T08:43:39;25.55;;;13.90;;
33094;SDS011;19459;53.044;8.910;2023-03-01T08:46:05;30.45;;;14.23;;
33094;SDS011;19459;53.044;8.910;2023-03-01T08:48:31;43.45;;;22.40;;
33094;SDS011;19459;53.044;8.910;2023-03-01T08:51:06;28.52;;;15.32;;
33094;SDS011;19459;53.044;8.910;2023-03-01T08:53:40;25.23;;;14.90;;
33094;SDS011;19459;53.044;8.910;2023-03-01T08:56:07;18.98;;;11.40;;
33094;SDS011;19459;53.044;8.910;2023-03-01T08:58:33;20.77;;;13.77;;
33094;SDS011;19459;53.044;8.910;2023-03-01T09:00:59;23.52;;;14.18;;
33094;SDS011;19459;53.044;8.910;2023-03-01T09:03:25;34.15;;;21.58;;
33094;SDS011;19459;53.044;8.910;2023-03-01T09:05:52;33.63;;;17.85;;
33094;SDS011;19459;53.044;8.910;2023-03-01T09:08:18;32.63;;;18.55;;
33094;SDS011;19459;53.044;8.910;2023-03-01T09:10:44;21.98;;;12.77;;
33094;SDS011;19459;53.044;8.910;2023-03-01T09:13:11;21.58;;;12.32;;
33094;SDS011;19459;53.044;8.910;2023-03-01T09:15:37;21.92;;;14.02;;
33094;SDS011;19459;53.044;8.910;2023-03-01T09:18:03;22.40;;;13.80;;
33094;SDS011;19459;53.044;8.910;2023-03-01T09:20:30;21.77;;;12.43;;
33094;SDS011;19459;53.044;8.910;2023-03-01T09:22:57;26.27;;;13.98;;
33094;SDS011;19459;53.044;8.910;2023-03-01T09:25:23;16.90;;;12.25;;
33094;SDS011;19459;53.044;8.910;2023-03-01T09:27:52;19.25;;;11.77;;
33094;SDS011;19459;53.044;8.910;2023-03-01T09:30:20;18.08;;;11.93;;
33094;SDS011;19459;53.044;8.910;2023-03-01T09:32:46;21.70;;;11.27;;
33094;SDS011;19459;53.044;8.910;2023-03-01T09:35:12;16.63;;;11.25;;
33094;SDS011;19459;53.044;8.910;2023-03-01T09:37:38;20.25;;;13.00;;
33094;SDS011;19459;53.044;8.910;2023-03-01T09:40:17;17.20;;;11.18;;
33094;SDS011;19459;53.044;8.910;2023-03-01T09:43:06;21.27;;;14.45;;
33094;SDS011;19459;53.044;8.910;2023-03-01T09:45:41;17.73;;;10.95;;
33094;SDS011;19459;53.044;8.910;2023-03-01T09:48:12;15.15;;;9.43;;
33094;SDS011;19459;53.044;8.910;2023-03-01T09:50:44;15.20;;;8.95;;
33094;SDS011;19459;53.044;8.910;2023-03-01T09:53:15;16.42;;;9.90;;
33094;SDS011;19459;53.044;8.910;2023-03-01T09:55:55;15.43;;;8.77;;
33094;SDS011;19459;53.044;8.910;2023-03-01T10:01:58;10.38;;;7.00;;
33094;SDS011;19459;53.044;8.910;2023-03-01T10:04:50;12.98;;;6.50;;
33094;SDS011;19459;53.044;8.910;2023-03-01T10:07:21;12.93;;;5.85;;
33094;SDS011;19459;53.044;8.910;2023-03-01T10:09:50;9.45;;;5.13;;
33094;SDS011;19459;53.044;8.910;2023-03-01T10:12:18;10.30;;;6.53;;
33094;SDS011;19459;53.044;8.910;2023-03-01T10:18:32;14.50;;;5.68;;
33094;SDS011;19459;53.044;8.910;2023-03-01T10:21:02;10.73;;;5.50;;
33094;SDS011;19459;53.044;8.910;2023-03-01T10:23:44;11.30;;;6.07;;
33094;SDS011;19459;53.044;8.910;2023-03-01T10:29:30;12.05;;;6.53;;
33094;SDS011;19459;53.044;8.910;2023-03-01T10:32:26;9.52;;;6.05;;
33094;SDS011;19459;53.044;8.910;2023-03-01T10:34:52;10.52;;;5.07;;
33094;SDS011;19459;53.044;8.910;2023-03-01T10:56:18;13.30;;;6.78;;
33094;SDS011;19459;53.044;8.910;2023-03-01T10:59:43;13.68;;;7.53;;
33094;SDS011;19459;53.044;8.910;2023-03-01T11:03:01;15.85;;;7.30;;
33094;SDS011;19459;53.044;8.910;2023-03-01T11:05:37;11.25;;;7.50;;
33094;SDS011;19459;53.044;8.910;2023-03-01T11:08:34;11.27;;;7.30;;
33094;SDS011;19459;53.044;8.910;2023-03-01T11:13:58;10.50;;;7.90;;
33094;SDS011;19459;53.044;8.910;2023-03-01T11:16:40;12.30;;;8.18;;
33094;SDS011;19459;53.044;8.910;2023-03-01T11:21:36;13.85;;;8.63;;
33094;SDS011;19459;53.044;8.910;2023-03-01T11:24:12;13.80;;;8.87;;
33094;SDS011;19459;53.044;8.910;2023-03-01T11:26:41;15.10;;;9.32;;
33094;SDS011;19459;53.044;8.910;2023-03-01T11:32:16;13.05;;;7.97;;
33094;SDS011;19459;53.044;8.910;2023-03-01T11:40:37;12.23;;;8.23;;
33094;SDS011;19459;53.044;8.910;2023-03-01T11:45:45;11.98;;;9.02;;
33094;SDS011;19459;53.044;8.910;2023-03-01T11:51:38;14.07;;;9.43;;
33094;SDS011;19459;53.044;8.910;2023-03-01T12:03:22;16.45;;;10.10;;
33094;SDS011;19459;53.044;8.910;2023-03-01T12:12:03;11.25;;;8.25;;
33094;SDS011;19459;53.044;8.910;2023-03-01T12:55:00;11.40;;;8.30;;
33094;SDS011;19459;53.044;8.910;2023-03-01T12:57:57;10.40;;;6.72;;
33094;SDS011;19459;53.044;8.910;2023-03-01T13:17:48;14.02;;;8.70;;
33094;SDS011;19459;53.044;8.910;2023-03-01T13:20:18;14.02;;;8.70;;
33094;SDS011;19459;53.044;8.910;2023-03-01T13:25:29;12.57;;;8.90;;
33094;SDS011;19459;53.044;8.910;2023-03-01T13:28:32;10.50;;;7.60;;
33094;SDS011;19459;53.044;8.910;2023-03-01T13:30:59;10.40;;;7.85;;
33094;SDS011;19459;53.044;8.910;2023-03-01T13:35:54;10.10;;;8.02;;
33094;SDS011;19459;53.044;8.910;2023-03-01T13:41:15;11.52;;;8.43;;
33094;SDS011;19459;53.044;8.910;2023-03-01T13:44:28;11.30;;;7.50;;
33094;SDS011;19459;53.044;8.910;2023-03-01T13:49:55;14.20;;;8.93;;
33094;SDS011;19459;53.044;8.910;2023-03-01T13:55:06;13.25;;;8.82;;
33094;SDS011;19459;53.044;8.910;2023-03-01T13:57:40;12.30;;;7.72;;
33094;SDS011;19459;53.044;8.910;2023-03-01T14:03:13;12.18;;;7.95;;
33094;SDS011;19459;53.044;8.910;2023-03-01T14:05:41;10.65;;;8.23;;
33094;SDS011;19459;53.044;8.910;2023-03-01T14:08:31;13.75;;;7.85;;
33094;SDS011;19459;53.044;8.910;2023-03-01T14:19:43;11.25;;;7.68;;
33094;SDS011;19459;53.044;8.910;2023-03-01T14:22:25;13.63;;;7.97;;
33094;SDS011;19459;53.044;8.910;2023-03-01T14:24:58;11.00;;;8.15;;
33094;SDS011;19459;53.044;8.910;2023-03-01T14:27:41;11.43;;;8.48;;
33094;SDS011;19459;53.044;8.910;2023-03-01T14:32:51;13.15;;;8.45;;
33094;SDS011;19459;53.044;8.910;2023-03-01T14:35:31;14.25;;;8.07;;
33094;SDS011;19459;53.044;8.910;2023-03-01T14:38:00;11.27;;;7.88;;
33094;SDS011;19459;53.044;8.910;2023-03-01T14:43:00;10.15;;;7.65;;
33094;SDS011;19459;53.044;8.910;2023-03-01T14:45:32;11.73;;;7.78;;
33094;SDS011;19459;53.044;8.910;2023-03-01T14:47:59;14.65;;;8.10;;
33094;SDS011;19459;53.044;8.910;2023-03-01T14:50:28;11.35;;;9.07;;
33094;SDS011;19459;53.044;8.910;2023-03-01T14:53:06;11.77;;;8.63;;
33094;SDS011;19459;53.044;8.910;2023-03-01T14:55:44;11.50;;;8.00;;
33094;SDS011;19459;53.044;8.910;2023-03-01T14:58:14;10.93;;;7.78;;
33094;SDS011;19459;53.044;8.910;2023-03-01T15:00:48;11.32;;;8.05;;
33094;SDS011;19459;53.044;8.910;2023-03-01T15:06:09;11.55;;;7.63;;
33094;SDS011;19459;53.044;8.910;2023-03-01T15:08:37;12.77;;;8.15;;
33094;SDS011;19459;53.044;8.910;2023-03-01T15:13:39;15.38;;;10.18;;
33094;SDS011;19459;53.044;8.910;2023-03-01T15:16:09;10.30;;;8.32;;
33094;SDS011;19459;53.044;8.910;2023-03-01T15:18:43;10.98;;;8.25;;
33094;SDS011;19459;53.044;8.910;2023-03-01T15:21:29;12.77;;;7.95;;
33094;SDS011;19459;53.044;8.910;2023-03-01T15:26:45;13.00;;;9.13;;
33094;SDS011;19459;53.044;8.910;2023-03-01T15:29:38;15.33;;;10.37;;
33094;SDS011;19459;53.044;8.910;2023-03-01T15:32:06;11.25;;;8.63;;
33094;SDS011;19459;53.044;8.910;2023-03-01T15:34:59;11.65;;;8.55;;
33094;SDS011;19459;53.044;8.910;2023-03-01T15:37:58;17.02;;;12.10;;
33094;SDS011;19459;53.044;8.910;2023-03-01T15:40:29;23.92;;;12.18;;
33094;SDS011;19459;53.044;8.910;2023-03-01T15:42:58;21.40;;;11.95;;
33094;SDS011;19459;53.044;8.910;2023-03-01T15:45:30;16.50;;;11.38;;
33094;SDS011;19459;53.044;8.910;2023-03-01T15:48:02;19.15;;;12.85;;
33094;SDS011;19459;53.044;8.910;2023-03-01T15:50:38;18.08;;;11.80;;
33094;SDS011;19459;53.044;8.910;2023-03-01T15:53:06;14.95;;;10.85;;
33094;SDS011;19459;53.044;8.910;2023-03-01T15:55:36;15.82;;;11.63;;
33094;SDS011;19459;53.044;8.910;2023-03-01T15:58:03;15.85;;;11.77;;
33094;SDS011;19459;53.044;8.910;2023-03-01T16:00:41;17.35;;;11.02;;
33094;SDS011;19459;53.044;8.910;2023-03-01T16:03:08;18.15;;;11.43;;
33094;SDS011;19459;53.044;8.910;2023-03-01T16:06:04;19.05;;;12.32;;
33094;SDS011;19459;53.044;8.910;2023-03-01T16:08:35;16.50;;;11.77;;
33094;SDS011;19459;53.044;8.910;2023-03-01T16:11:27;17.70;;;12.50;;
33094;SDS011;19459;53.044;8.910;2023-03-01T16:21:49;25.35;;;12.85;;
33094;SDS011;19459;53.044;8.910;2023-03-01T16:33:09;22.02;;;13.65;;
33094;SDS011;19459;53.044;8.910;2023-03-01T16:50:16;25.92;;;14.05;;
33094;SDS011;19459;53.044;8.910;2023-03-01T16:52:42;21.25;;;13.35;;
33094;SDS011;19459;53.044;8.910;2023-03-01T16:55:07;28.05;;;14.30;;
33094;SDS011;19459;53.044;8.910;2023-03-01T16:57:34;24.55;;;15.15;;
33094;SDS011;19459;53.044;8.910;2023-03-01T17:00:02;27.65;;;15.88;;
33094;SDS011;19459;53.044;8.910;2023-03-01T17:02:32;27.63;;;15.63;;
33094;SDS011;19459;53.044;8.910;2023-03-01T17:05:01;27.30;;;16.20;;
33094;SDS011;19459;53.044;8.910;2023-03-01T17:07:28;29.02;;;16.13;;
33094;SDS011;19459;53.044;8.910;2023-03-01T17:09:58;27.50;;;16.80;;
33094;SDS011;19459;53.044;8.910;2023-03-01T17:12:25;32.15;;;17.88;;
33094;SDS011;19459;53.044;8.910;2023-03-01T17:14:50;24.90;;;15.50;;
33094;SDS011;19459;53.044;8.910;2023-03-01T17:17:16;26.35;;;15.55;;
33094;SDS011;19459;53.044;8.910;2023-03-01T17:19:42;27.25;;;16.58;;
33094;SDS011;19459;53.044;8.910;2023-03-01T17:22:08;29.83;;;17.45;;
33094;SDS011;19459;53.044;8.910;2023-03-01T17:24:37;27.35;;;17.00;;
33094;SDS011;19459;53.044;8.910;2023-03-01T17:27:05;31.17;;;16.75;;
33094;SDS011;19459;53.044;8.910;2023-03-01T17:29:31;31.75;;;18.15;;
33094;SDS011;19459;53.044;8.910;2023-03-01T17:31:57;34.47;;;19.63;;
33094;SDS011;19459;53.044;8.910;2023-03-01T17:34:23;30.92;;;18.58;;
33094;SDS011;19459;53.044;8.910;2023-03-01T17:36:50;38.75;;;20.13;;
33094;SDS011;19459;53.044;8.910;2023-03-01T17:39:19;38.03;;;19.77;;
33094;SDS011;19459;53.044;8.910;2023-03-01T17:41:50;70.43;;;37.67;;
33094;SDS011;19459;53.044;8.910;2023-03-01T17:44:16;51.10;;;30.98;;
33094;SDS011;19459;53.044;8.910;2023-03-01T17:46:42;35.33;;;20.75;;
33094;SDS011;19459;53.044;8.910;2023-03-01T17:49:08;32.45;;;19.98;;
33094;SDS011;19459;53.044;8.910;2023-03-01T17:51:34;32.70;;;17.95;;
33094;SDS011;19459;53.044;8.910;2023-03-01T17:53:59;38.05;;;18.95;;
33094;SDS011;19459;53.044;8.910;2023-03-01T17:56:25;36.65;;;20.15;;
33094;SDS011;19459;53.044;8.910;2023-03-01T17:58:52;39.00;;;22.13;;
33094;SDS011;19459;53.044;8.910;2023-03-01T18:01:19;36.72;;;20.42;;
33094;SDS011;19459;53.044;8.910;2023-03-01T18:03:45;38.60;;;21.42;;
33094;SDS011;19459;53.044;8.910;2023-03-01T18:06:15;40.17;;;21.02;;
33094;SDS011;19459;53.044;8.910;2023-03-01T18:08:48;37.08;;;19.77;;
33094;SDS011;19459;53.044;8.910;2023-03-01T18:11:14;36.80;;;22.42;;
33094;SDS011;19459;53.044;8.910;2023-03-01T18:13:42;37.33;;;21.13;;
33094;SDS011;19459;53.044;8.910;2023-03-01T18:16:13;42.05;;;22.70;;
33094;SDS011;19459;53.044;8.910;2023-03-01T18:18:41;37.85;;;22.80;;